sensor_id;sensor_type;location;lat;lon;timestamp;P1;durP1;ratioP1;P2;durP2;ratioP2
52434;SDS011;38354;52.892;6.148;2023-02-21T04:01:17;48.38;;;21.38;;
52434;SDS011;38354;52.892;6.148;2023-02-21T04:03:43;51.80;;;21.60;;
52434;SDS011;38354;52.892;6.148;2023-02-21T04:06:09;46.10;;;21.85;;
52434;SDS011;38354;52.892;6.148;2023-02-21T04:08:34;47.75;;;21.52;;
52434;SDS011;38354;52.892;6.148;2023-02-21T04:11:00;54.47;;;23.23;;
52434;SDS011;38354;52.892;6.148;2023-02-21T04:13:26;46.65;;;21.90;;
52434;SDS011;38354;52.892;6.148;2023-02-21T04:15:51;45.55;;;21.88;;
52434;SDS011;38354;52.892;6.148;2023-02-21T04:18:17;48.13;;;20.95;;
52434;SDS011;38354;52.892;6.148;2023-02-21T04:20:42;47.40;;;21.95;;
52434;SDS011;38354;52.892;6.148;2023-02-21T04:23:10;48.47;;;23.25;;
52434;SDS011;38354;52.892;6.148;2023-02-21T04:25:36;55.28;;;23.02;;
52434;SDS011;38354;52.892;6.148;2023-02-21T04:28:01;48.03;;;22.70;;
52434;SDS011;38354;52.892;6.148;2023-02-21T04:30:27;48.83;;;22.38;;
52434;SDS011;38354;52.892;6.148;2023-02-21T04:32:52;48.65;;;21.95;;
52434;SDS011;38354;52.892;6.148;2023-02-21T04:35:18;54.33;;;22.98;;
52434;SDS011;38354;52.892;6.148;2023-02-21T04:37:44;49.80;;;22.40;;
52434;SDS011;38354;52.892;6.148;2023-02-21T04:40:10;57.13;;;21.83;;
52434;SDS011;38354;52.892;6.148;2023-02-21T04:42:36;47.03;;;22.13;;
52434;SDS011;38354;52.892;6.148;2023-02-21T04:45:02;53.70;;;21.90;;
52434;SDS011;38354;52.892;6.148;2023-02-21T04:47:27;57.47;;;23.55;;
52434;SDS011;38354;52.892;6.148;2023-02-21T04:49:53;54.55;;;23.73;;
52434;SDS011;38354;52.892;6.148;2023-02-21T04:52:19;52.72;;;21.13;;
52434;SDS011;38354;52.892;6.148;2023-02-21T04:54:45;51.40;;;23.23;;
52434;SDS011;38354;52.892;6.148;2023-02-21T04:57:11;46.55;;;21.95;;
52434;SDS011;38354;52.892;6.148;2023-02-21T04:59:38;44.63;;;22.42;;
52434;SDS011;38354;52.892;6.148;2023-02-21T05:02:04;46.90;;;22.25;;
52434;SDS011;38354;52.892;6.148;2023-02-21T05:04:31;45.47;;;22.23;;
52434;SDS011;38354;52.892;6.148;2023-02-21T05:07:00;43.90;;;21.90;;
52434;SDS011;38354;52.892;6.148;2023-02-21T05:09:26;49.17;;;23.30;;
52434;SDS011;38354;52.892;6.148;2023-02-21T05:11:51;48.63;;;21.73;;
52434;SDS011;38354;52.892;6.148;2023-02-21T05:14:17;48.72;;;23.40;;
52434;SDS011;38354;52.892;6.148;2023-02-21T05:16:43;52.47;;;21.98;;
52434;SDS011;38354;52.892;6.148;2023-02-21T05:19:09;46.40;;;22.23;;
52434;SDS011;38354;52.892;6.148;2023-02-21T05:21:35;45.63;;;20.75;;
52434;SDS011;38354;52.892;6.148;2023-02-21T05:24:04;47.13;;;20.88;;
52434;SDS011;38354;52.892;6.148;2023-02-21T05:26:35;48.50;;;22.40;;
52434;SDS011;38354;52.892;6.148;2023-02-21T05:29:02;47.97;;;22.90;;
52434;SDS011;38354;52.892;6.148;2023-02-21T05:31:28;50.08;;;23.13;;
52434;SDS011;38354;52.892;6.148;2023-02-21T05:33:55;52.58;;;22.58;;
52434;SDS011;38354;52.892;6.148;2023-02-21T05:36:21;43.15;;;18.70;;
52434;SDS011;38354;52.892;6.148;2023-02-21T05:38:50;48.97;;;22.55;;
52434;SDS011;38354;52.892;6.148;2023-02-21T05:41:17;47.05;;;21.48;;
52434;SDS011;38354;52.892;6.148;2023-02-21T05:43:47;52.60;;;24.17;;
52434;SDS011;38354;52.892;6.148;2023-02-21T05:46:33;49.75;;;22.75;;
52434;SDS011;38354;52.892;6.148;2023-02-21T05:49:00;53.88;;;23.45;;
52434;SDS011;38354;52.892;6.148;2023-02-21T05:51:32;56.90;;;23.65;;
52434;SDS011;38354;52.892;6.148;2023-02-21T05:54:00;51.33;;;23.75;;
52434;SDS011;38354;52.892;6.148;2023-02-21T05:56:25;48.33;;;22.77;;
52434;SDS011;38354;52.892;6.148;2023-02-21T05:58:51;48.70;;;23.33;;
52434;SDS011;38354;52.892;6.148;2023-02-21T06:01:17;45.10;;;21.05;;
52434;SDS011;38354;52.892;6.148;2023-02-21T06:03:42;53.00;;;22.98;;
52434;SDS011;38354;52.892;6.148;2023-02-21T06:06:08;52.33;;;25.42;;
52434;SDS011;38354;52.892;6.148;2023-02-21T06:08:46;44.60;;;19.35;;
52434;SDS011;38354;52.892;6.148;2023-02-21T06:11:13;53.55;;;24.75;;
52434;SDS011;38354;52.892;6.148;2023-02-21T06:13:45;57.33;;;23.88;;
52434;SDS011;38354;52.892;6.148;2023-02-21T06:16:13;51.22;;;24.70;;
52434;SDS011;38354;52.892;6.148;2023-02-21T06:18:39;53.85;;;22.88;;
52434;SDS011;38354;52.892;6.148;2023-02-21T06:21:05;58.80;;;24.50;;
52434;SDS011;38354;52.892;6.148;2023-02-21T06:23:30;58.03;;;24.98;;
52434;SDS011;38354;52.892;6.148;2023-02-21T06:25:56;59.47;;;24.17;;
52434;SDS011;38354;52.892;6.148;2023-02-21T06:28:26;60.97;;;24.65;;
52434;SDS011;38354;52.892;6.148;2023-02-21T06:30:53;63.75;;;27.25;;
52434;SDS011;38354;52.892;6.148;2023-02-21T06:33:19;60.40;;;23.95;;
52434;SDS011;38354;52.892;6.148;2023-02-21T06:35:44;52.63;;;23.58;;
52434;SDS011;38354;52.892;6.148;2023-02-21T06:38:10;62.15;;;25.38;;
52434;SDS011;38354;52.892;6.148;2023-02-21T06:40:36;54.42;;;24.58;;
52434;SDS011;38354;52.892;6.148;2023-02-21T06:43:01;57.50;;;25.70;;
52434;SDS011;38354;52.892;6.148;2023-02-21T06:45:27;53.45;;;25.10;;
52434;SDS011;38354;52.892;6.148;2023-02-21T06:47:53;57.63;;;24.08;;
52434;SDS011;38354;52.892;6.148;2023-02-21T06:50:18;59.08;;;25.38;;
52434;SDS011;38354;52.892;6.148;2023-02-21T06:52:44;51.95;;;24.08;;
52434;SDS011;38354;52.892;6.148;2023-02-21T06:55:10;58.80;;;24.80;;
52434;SDS011;38354;52.892;6.148;2023-02-21T06:57:35;53.47;;;25.23;;
52434;SDS011;38354;52.892;6.148;2023-02-21T07:00:02;60.03;;;26.05;;
52434;SDS011;38354;52.892;6.148;2023-02-21T07:02:29;57.30;;;25.80;;
52434;SDS011;38354;52.892;6.148;2023-02-21T07:04:54;56.72;;;23.75;;
52434;SDS011;38354;52.892;6.148;2023-02-21T07:07:23;53.88;;;24.73;;
52434;SDS011;38354;52.892;6.148;2023-02-21T07:09:48;50.90;;;25.52;;
52434;SDS011;38354;52.892;6.148;2023-02-21T07:12:14;49.58;;;22.85;;
52434;SDS011;38354;52.892;6.148;2023-02-21T07:14:40;53.28;;;22.73;;
52434;SDS011;38354;52.892;6.148;2023-02-21T07:17:05;53.97;;;24.08;;
52434;SDS011;38354;52.892;6.148;2023-02-21T07:19:31;60.67;;;23.98;;
52434;SDS011;38354;52.892;6.148;2023-02-21T07:21:56;50.75;;;24.60;;
52434;SDS011;38354;52.892;6.148;2023-02-21T07:24:22;53.05;;;24.13;;
52434;SDS011;38354;52.892;6.148;2023-02-21T07:26:48;56.47;;;23.95;;
52434;SDS011;38354;52.892;6.148;2023-02-21T07:29:13;48.15;;;22.85;;
52434;SDS011;38354;52.892;6.148;2023-02-21T07:31:39;61.58;;;25.73;;
52434;SDS011;38354;52.892;6.148;2023-02-21T07:34:04;47.35;;;22.63;;
52434;SDS011;38354;52.892;6.148;2023-02-21T07:36:30;54.53;;;24.70;;
52434;SDS011;38354;52.892;6.148;2023-02-21T07:38:56;59.55;;;25.00;;
52434;SDS011;38354;52.892;6.148;2023-02-21T07:41:21;56.72;;;25.17;;
52434;SDS011;38354;52.892;6.148;2023-02-21T07:43:47;57.40;;;26.15;;
52434;SDS011;38354;52.892;6.148;2023-02-21T07:46:13;58.90;;;26.63;;
52434;SDS011;38354;52.892;6.148;2023-02-21T07:48:41;57.15;;;25.17;;
52434;SDS011;38354;52.892;6.148;2023-02-21T07:51:07;55.70;;;24.25;;
52434;SDS011;38354;52.892;6.148;2023-02-21T07:53:33;57.10;;;23.77;;
52434;SDS011;38354;52.892;6.148;2023-02-21T07:55:59;58.78;;;26.55;;
52434;SDS011;38354;52.892;6.148;2023-02-21T07:58:25;57.00;;;26.50;;
52434;SDS011;38354;52.892;6.148;2023-02-21T08:00:50;59.75;;;25.58;;
52434;SDS011;38354;52.892;6.148;2023-02-21T08:03:16;54.83;;;24.50;;
52434;SDS011;38354;52.892;6.148;2023-02-21T08:05:42;54.38;;;26.17;;
52434;SDS011;38354;52.892;6.148;2023-02-21T08:08:10;55.85;;;26.42;;
52434;SDS011;38354;52.892;6.148;2023-02-21T08:10:36;55.65;;;24.67;;
52434;SDS011;38354;52.892;6.148;2023-02-21T08:13:02;51.50;;;24.65;;
52434;SDS011;38354;52.892;6.148;2023-02-21T08:15:28;59.97;;;27.60;;
52434;SDS011;38354;52.892;6.148;2023-02-21T08:17:54;56.83;;;26.35;;
52434;SDS011;38354;52.892;6.148;2023-02-21T08:20:20;48.03;;;24.02;;
52434;SDS011;38354;52.892;6.148;2023-02-21T08:22:45;57.67;;;25.45;;
52434;SDS011;38354;52.892;6.148;2023-02-21T08:25:15;50.40;;;21.02;;
52434;SDS011;38354;52.892;6.148;2023-02-21T08:27:41;52.05;;;25.45;;
52434;SDS011;38354;52.892;6.148;2023-02-21T08:30:08;53.42;;;24.92;;
52434;SDS011;38354;52.892;6.148;2023-02-21T08:32:36;55.65;;;26.02;;
52434;SDS011;38354;52.892;6.148;2023-02-21T08:35:02;56.17;;;26.40;;
52434;SDS011;38354;52.892;6.148;2023-02-21T08:37:30;53.50;;;25.05;;
52434;SDS011;38354;52.892;6.148;2023-02-21T08:39:57;55.53;;;25.10;;
52434;SDS011;38354;52.892;6.148;2023-02-21T08:42:24;56.63;;;25.10;;
52434;SDS011;38354;52.892;6.148;2023-02-21T08:44:50;49.80;;;25.48;;
52434;SDS011;38354;52.892;6.148;2023-02-21T08:47:16;54.05;;;25.73;;
52434;SDS011;38354;52.892;6.148;2023-02-21T08:49:46;52.70;;;26.52;;
52434;SDS011;38354;52.892;6.148;2023-02-21T08:52:12;51.75;;;24.05;;
52434;SDS011;38354;52.892;6.148;2023-02-21T08:54:40;61.60;;;24.92;;
52434;SDS011;38354;52.892;6.148;2023-02-21T08:57:06;56.63;;;25.73;;
52434;SDS011;38354;52.892;6.148;2023-02-21T08:59:32;45.72;;;23.13;;
52434;SDS011;38354;52.892;6.148;2023-02-21T09:02:02;50.60;;;24.45;;
52434;SDS011;38354;52.892;6.148;2023-02-21T09:04:27;47.50;;;24.10;;
52434;SDS011;38354;52.892;6.148;2023-02-21T09:06:53;58.65;;;25.23;;
52434;SDS011;38354;52.892;6.148;2023-02-21T09:09:19;49.08;;;24.13;;
52434;SDS011;38354;52.892;6.148;2023-02-21T09:11:46;49.92;;;23.17;;
52434;SDS011;38354;52.892;6.148;2023-02-21T09:14:14;44.58;;;23.05;;
52434;SDS011;38354;52.892;6.148;2023-02-21T09:16:40;49.63;;;23.80;;
52434;SDS011;38354;52.892;6.148;2023-02-21T09:19:07;47.80;;;23.48;;
52434;SDS011;38354;52.892;6.148;2023-02-21T09:21:33;51.33;;;24.55;;
52434;SDS011;38354;52.892;6.148;2023-02-21T09:23:59;44.80;;;21.95;;
52434;SDS011;38354;52.892;6.148;2023-02-21T09:26:27;49.95;;;24.35;;
52434;SDS011;38354;52.892;6.148;2023-02-21T09:28:56;51.88;;;24.70;;
52434;SDS011;38354;52.892;6.148;2023-02-21T09:31:23;46.60;;;22.23;;
52434;SDS011;38354;52.892;6.148;2023-02-21T09:33:49;49.08;;;21.40;;
52434;SDS011;38354;52.892;6.148;2023-02-21T09:36:15;52.85;;;23.45;;
52434;SDS011;38354;52.892;6.148;2023-02-21T09:38:41;47.90;;;22.20;;
52434;SDS011;38354;52.892;6.148;2023-02-21T09:41:08;48.30;;;23.77;;
52434;SDS011;38354;52.892;6.148;2023-02-21T09:43:37;44.08;;;22.33;;
52434;SDS011;38354;52.892;6.148;2023-02-21T09:46:23;44.90;;;21.55;;
52434;SDS011;38354;52.892;6.148;2023-02-21T09:49:05;41.15;;;21.55;;
52434;SDS011;38354;52.892;6.148;2023-02-21T09:51:37;45.38;;;21.75;;
52434;SDS011;38354;52.892;6.148;2023-02-21T09:54:09;42.80;;;20.98;;
52434;SDS011;38354;52.892;6.148;2023-02-21T09:59:09;41.95;;;19.77;;
52434;SDS011;38354;52.892;6.148;2023-02-21T10:01:55;43.42;;;22.10;;
52434;SDS011;38354;52.892;6.148;2023-02-21T10:07:25;44.47;;;22.42;;
52434;SDS011;38354;52.892;6.148;2023-02-21T10:10:01;42.13;;;21.35;;
52434;SDS011;38354;52.892;6.148;2023-02-21T10:12:42;42.05;;;21.02;;
52434;SDS011;38354;52.892;6.148;2023-02-21T10:20:50;41.38;;;20.08;;
52434;SDS011;38354;52.892;6.148;2023-02-21T10:26:24;42.78;;;20.88;;
52434;SDS011;38354;52.892;6.148;2023-02-21T10:28:52;38.85;;;20.95;;
52434;SDS011;38354;52.892;6.148;2023-02-21T10:31:20;43.83;;;20.58;;
52434;SDS011;38354;52.892;6.148;2023-02-21T10:33:53;39.53;;;20.15;;
52434;SDS011;38354;52.892;6.148;2023-02-21T10:36:20;40.08;;;20.88;;
52434;SDS011;38354;52.892;6.148;2023-02-21T10:39:03;41.58;;;19.88;;
52434;SDS011;38354;52.892;6.148;2023-02-21T10:41:36;40.42;;;20.25;;
52434;SDS011;38354;52.892;6.148;2023-02-21T10:44:15;37.08;;;19.52;;
52434;SDS011;38354;52.892;6.148;2023-02-21T10:53:01;43.55;;;20.83;;
52434;SDS011;38354;52.892;6.148;2023-02-21T10:55:27;47.28;;;22.48;;
52434;SDS011;38354;52.892;6.148;2023-02-21T10:57:53;40.40;;;21.83;;
52434;SDS011;38354;52.892;6.148;2023-02-21T11:00:34;41.90;;;21.23;;
52434;SDS011;38354;52.892;6.148;2023-02-21T11:03:06;38.58;;;20.70;;
52434;SDS011;38354;52.892;6.148;2023-02-21T11:05:51;42.03;;;22.55;;
52434;SDS011;38354;52.892;6.148;2023-02-21T11:08:40;41.25;;;21.40;;
52434;SDS011;38354;52.892;6.148;2023-02-21T11:11:07;43.28;;;20.92;;
52434;SDS011;38354;52.892;6.148;2023-02-21T11:13:34;42.63;;;21.38;;
52434;SDS011;38354;52.892;6.148;2023-02-21T11:18:44;46.20;;;22.58;;
52434;SDS011;38354;52.892;6.148;2023-02-21T11:23:48;48.05;;;24.25;;
52434;SDS011;38354;52.892;6.148;2023-02-21T11:26:26;50.40;;;24.40;;
52434;SDS011;38354;52.892;6.148;2023-02-21T11:28:54;45.58;;;23.73;;
52434;SDS011;38354;52.892;6.148;2023-02-21T11:31:34;48.10;;;24.05;;
52434;SDS011;38354;52.892;6.148;2023-02-21T11:34:01;51.78;;;23.63;;
52434;SDS011;38354;52.892;6.148;2023-02-21T11:36:29;49.22;;;24.20;;
52434;SDS011;38354;52.892;6.148;2023-02-21T11:41:57;45.40;;;23.60;;
52434;SDS011;38354;52.892;6.148;2023-02-21T11:44:31;47.30;;;23.98;;
52434;SDS011;38354;52.892;6.148;2023-02-21T11:47:07;51.00;;;24.77;;
52434;SDS011;38354;52.892;6.148;2023-02-21T11:50:04;56.08;;;25.48;;
52434;SDS011;38354;52.892;6.148;2023-02-21T11:55:13;50.03;;;24.23;;
52434;SDS011;38354;52.892;6.148;2023-02-21T12:00:19;44.23;;;23.03;;
52434;SDS011;38354;52.892;6.148;2023-02-21T12:02:56;48.58;;;23.98;;
52434;SDS011;38354;52.892;6.148;2023-02-21T12:08:50;52.53;;;23.73;;
52434;SDS011;38354;52.892;6.148;2023-02-21T12:14:49;55.33;;;24.65;;
52434;SDS011;38354;52.892;6.148;2023-02-21T12:20:50;71.70;;;32.05;;
52434;SDS011;38354;52.892;6.148;2023-02-21T12:23:26;69.90;;;32.90;;
52434;SDS011;38354;52.892;6.148;2023-02-21T12:26:02;74.30;;;32.28;;
52434;SDS011;38354;52.892;6.148;2023-02-21T12:31:50;65.22;;;30.05;;
52434;SDS011;38354;52.892;6.148;2023-02-21T12:37:29;66.07;;;28.45;;
52434;SDS011;38354;52.892;6.148;2023-02-21T12:48:22;75.38;;;29.83;;
52434;SDS011;38354;52.892;6.148;2023-02-21T12:56:20;75.70;;;32.10;;
52434;SDS011;38354;52.892;6.148;2023-02-21T12:58:55;75.03;;;32.92;;
52434;SDS011;38354;52.892;6.148;2023-02-21T13:01:29;67.95;;;30.80;;
52434;SDS011;38354;52.892;6.148;2023-02-21T13:09:30;69.03;;;30.63;;
52434;SDS011;38354;52.892;6.148;2023-02-21T13:12:11;67.35;;;29.83;;
52434;SDS011;38354;52.892;6.148;2023-02-21T13:14:42;67.40;;;29.50;;
52434;SDS011;38354;52.892;6.148;2023-02-21T13:17:13;71.40;;;31.63;;
52434;SDS011;38354;52.892;6.148;2023-02-21T13:19:42;73.90;;;32.88;;
52434;SDS011;38354;52.892;6.148;2023-02-21T13:30:39;65.90;;;30.40;;
52434;SDS011;38354;52.892;6.148;2023-02-21T13:33:20;69.07;;;31.00;;
52434;SDS011;38354;52.892;6.148;2023-02-21T13:41:39;67.18;;;30.08;;
52434;SDS011;38354;52.892;6.148;2023-02-21T13:44:15;74.05;;;31.50;;
52434;SDS011;38354;52.892;6.148;2023-02-21T13:57:47;78.57;;;34.63;;
52434;SDS011;38354;52.892;6.148;2023-02-21T14:08:12;71.95;;;31.45;;
52434;SDS011;38354;52.892;6.148;2023-02-21T14:10:45;68.05;;;30.67;;
52434;SDS011;38354;52.892;6.148;2023-02-21T14:13:32;76.63;;;32.95;;
52434;SDS011;38354;52.892;6.148;2023-02-21T14:21:05;66.72;;;30.08;;
52434;SDS011;38354;52.892;6.148;2023-02-21T14:23:40;65.53;;;30.33;;
52434;SDS011;38354;52.892;6.148;2023-02-21T14:34:10;75.57;;;31.63;;
52434;SDS011;38354;52.892;6.148;2023-02-21T14:36:36;70.93;;;33.40;;
52434;SDS011;38354;52.892;6.148;2023-02-21T14:39:03;72.80;;;32.38;;
52434;SDS011;38354;52.892;6.148;2023-02-21T15:08:24;59.28;;;26.75;;
52434;SDS011;38354;52.892;6.148;2023-02-21T15:10:56;60.60;;;28.25;;
52434;SDS011;38354;52.892;6.148;2023-02-21T15:13:26;54.38;;;25.77;;
52434;SDS011;38354;52.892;6.148;2023-02-21T15:16:00;61.72;;;26.77;;
52434;SDS011;38354;52.892;6.148;2023-02-21T15:23:36;53.13;;;26.40;;
52434;SDS011;38354;52.892;6.148;2023-02-21T15:26:36;57.78;;;25.40;;
52434;SDS011;38354;52.892;6.148;2023-02-21T15:29:03;53.78;;;24.83;;
52434;SDS011;38354;52.892;6.148;2023-02-21T15:31:49;60.90;;;28.55;;
52434;SDS011;38354;52.892;6.148;2023-02-21T15:36:57;57.22;;;28.17;;
52434;SDS011;38354;52.892;6.148;2023-02-21T15:39:34;57.65;;;26.75;;
52434;SDS011;38354;52.892;6.148;2023-02-21T15:42:04;54.08;;;26.25;;
52434;SDS011;38354;52.892;6.148;2023-02-21T15:44:36;53.55;;;26.27;;
52434;SDS011;38354;52.892;6.148;2023-02-21T15:47:23;59.15;;;29.20;;
52434;SDS011;38354;52.892;6.148;2023-02-21T16:00:35;58.72;;;27.02;;
52434;SDS011;38354;52.892;6.148;2023-02-21T16:05:54;60.38;;;26.77;;
52434;SDS011;38354;52.892;6.148;2023-02-21T16:08:32;61.67;;;29.90;;
52434;SDS011;38354;52.892;6.148;2023-02-21T16:11:01;72.35;;;29.67;;
52434;SDS011;38354;52.892;6.148;2023-02-21T16:13:33;75.05;;;36.10;;
52434;SDS011;38354;52.892;6.148;2023-02-21T16:28:39;76.97;;;32.53;;
52434;SDS011;38354;52.892;6.148;2023-02-21T16:31:13;80.47;;;33.53;;
52434;SDS011;38354;52.892;6.148;2023-02-21T16:33:41;74.50;;;31.50;;
52434;SDS011;38354;52.892;6.148;2023-02-21T16:36:08;81.28;;;33.63;;
52434;SDS011;38354;52.892;6.148;2023-02-21T16:38:41;92.45;;;35.25;;
52434;SDS011;38354;52.892;6.148;2023-02-21T16:41:13;87.00;;;34.83;;
52434;SDS011;38354;52.892;6.148;2023-02-21T16:43:41;76.10;;;31.17;;
52434;SDS011;38354;52.892;6.148;2023-02-21T16:46:06;86.40;;;34.70;;
52434;SDS011;38354;52.892;6.148;2023-02-21T16:48:32;73.38;;;30.15;;
52434;SDS011;38354;52.892;6.148;2023-02-21T16:51:02;76.57;;;32.45;;
52434;SDS011;38354;52.892;6.148;2023-02-21T16:53:31;77.43;;;31.83;;
52434;SDS011;38354;52.892;6.148;2023-02-21T16:55:57;73.25;;;30.60;;
52434;SDS011;38354;52.892;6.148;2023-02-21T16:58:32;81.43;;;33.15;;
52434;SDS011;38354;52.892;6.148;2023-02-21T17:01:13;75.55;;;31.75;;
52434;SDS011;38354;52.892;6.148;2023-02-21T17:03:47;83.93;;;35.10;;
52434;SDS011;38354;52.892;6.148;2023-02-21T17:06:14;85.00;;;32.55;;
52434;SDS011;38354;52.892;6.148;2023-02-21T17:08:43;80.05;;;31.63;;
52434;SDS011;38354;52.892;6.148;2023-02-21T17:11:09;94.38;;;34.70;;
52434;SDS011;38354;52.892;6.148;2023-02-21T17:13:34;84.60;;;34.08;;
52434;SDS011;38354;52.892;6.148;2023-02-21T17:16:00;81.13;;;34.03;;
52434;SDS011;38354;52.892;6.148;2023-02-21T17:18:25;85.70;;;34.40;;
52434;SDS011;38354;52.892;6.148;2023-02-21T17:20:55;81.97;;;34.20;;
52434;SDS011;38354;52.892;6.148;2023-02-21T17:23:20;80.07;;;32.58;;
52434;SDS011;38354;52.892;6.148;2023-02-21T17:25:46;84.53;;;35.20;;
52434;SDS011;38354;52.892;6.148;2023-02-21T17:28:12;76.13;;;30.85;;
52434;SDS011;38354;52.892;6.148;2023-02-21T17:30:37;74.20;;;28.75;;
52434;SDS011;38354;52.892;6.148;2023-02-21T17:33:03;78.35;;;32.22;;
52434;SDS011;38354;52.892;6.148;2023-02-21T17:35:29;71.13;;;28.42;;
52434;SDS011;38354;52.892;6.148;2023-02-21T17:37:55;70.20;;;29.27;;
52434;SDS011;38354;52.892;6.148;2023-02-21T17:40:25;70.85;;;29.85;;
52434;SDS011;38354;52.892;6.148;2023-02-21T17:42:51;78.60;;;32.15;;
52434;SDS011;38354;52.892;6.148;2023-02-21T17:45:17;75.55;;;29.70;;
52434;SDS011;38354;52.892;6.148;2023-02-21T17:47:45;72.93;;;28.20;;
52434;SDS011;38354;52.892;6.148;2023-02-21T17:50:12;78.25;;;29.10;;
52434;SDS011;38354;52.892;6.148;2023-02-21T17:52:38;73.97;;;29.40;;
52434;SDS011;38354;52.892;6.148;2023-02-21T17:55:04;75.60;;;28.42;;
52434;SDS011;38354;52.892;6.148;2023-02-21T17:57:35;80.45;;;32.45;;
52434;SDS011;38354;52.892;6.148;2023-02-21T18:00:05;69.72;;;28.67;;
52434;SDS011;38354;52.892;6.148;2023-02-21T18:02:34;69.45;;;26.55;;
52434;SDS011;38354;52.892;6.148;2023-02-21T18:05:00;71.43;;;28.80;;
52434;SDS011;38354;52.892;6.148;2023-02-21T18:07:26;80.07;;;29.20;;
52434;SDS011;38354;52.892;6.148;2023-02-21T18:09:56;78.82;;;29.13;;
52434;SDS011;38354;52.892;6.148;2023-02-21T18:12:29;76.25;;;29.20;;
52434;SDS011;38354;52.892;6.148;2023-02-21T18:14:57;76.80;;;29.92;;
52434;SDS011;38354;52.892;6.148;2023-02-21T18:17:23;77.63;;;28.40;;
52434;SDS011;38354;52.892;6.148;2023-02-21T18:19:49;82.78;;;29.13;;
52434;SDS011;38354;52.892;6.148;2023-02-21T18:22:14;72.38;;;28.45;;
52434;SDS011;38354;52.892;6.148;2023-02-21T18:24:40;78.07;;;27.90;;
52434;SDS011;38354;52.892;6.148;2023-02-21T18:27:06;80.75;;;28.33;;
52434;SDS011;38354;52.892;6.148;2023-02-21T18:29:32;78.55;;;28.20;;
52434;SDS011;38354;52.892;6.148;2023-02-21T18:31:57;74.75;;;27.40;;
52434;SDS011;38354;52.892;6.148;2023-02-21T18:34:23;74.65;;;27.02;;
52434;SDS011;38354;52.892;6.148;2023-02-21T18:36:50;87.50;;;28.58;;
52434;SDS011;38354;52.892;6.148;2023-02-21T18:39:17;77.50;;;28.58;;
52434;SDS011;38354;52.892;6.148;2023-02-21T18:41:44;75.75;;;28.05;;
52434;SDS011;38354;52.892;6.148;2023-02-21T18:44:10;88.88;;;29.67;;
52434;SDS011;38354;52.892;6.148;2023-02-21T18:46:36;76.10;;;28.00;;
52434;SDS011;38354;52.892;6.148;2023-02-21T18:49:03;84.93;;;29.55;;
52434;SDS011;38354;52.892;6.148;2023-02-21T18:51:32;80.68;;;29.10;;
52434;SDS011;38354;52.892;6.148;2023-02-21T18:53:59;79.45;;;27.45;;
52434;SDS011;38354;52.892;6.148;2023-02-21T18:56:25;81.03;;;27.65;;
52434;SDS011;38354;52.892;6.148;2023-02-21T18:58:50;76.65;;;27.88;;
52434;SDS011;38354;52.892;6.148;2023-02-21T19:01:17;82.45;;;28.60;;
52434;SDS011;38354;52.892;6.148;2023-02-21T19:03:45;84.38;;;29.42;;
52434;SDS011;38354;52.892;6.148;2023-02-21T19:06:15;75.45;;;28.52;;
52434;SDS011;38354;52.892;6.148;2023-02-21T19:08:42;81.72;;;27.08;;
52434;SDS011;38354;52.892;6.148;2023-02-21T19:11:10;96.65;;;29.77;;
52434;SDS011;38354;52.892;6.148;2023-02-21T19:13:37;87.18;;;29.55;;
52434;SDS011;38354;52.892;6.148;2023-02-21T19:16:03;81.15;;;28.15;;
52434;SDS011;38354;52.892;6.148;2023-02-21T19:18:29;85.80;;;27.70;;
52434;SDS011;38354;52.892;6.148;2023-02-21T19:20:55;95.53;;;29.05;;
52434;SDS011;38354;52.892;6.148;2023-02-21T19:23:21;84.55;;;27.05;;
52434;SDS011;38354;52.892;6.148;2023-02-21T19:25:48;85.15;;;27.65;;
52434;SDS011;38354;52.892;6.148;2023-02-21T19:28:13;98.72;;;30.35;;
52434;SDS011;38354;52.892;6.148;2023-02-21T19:30:39;83.50;;;28.55;;
52434;SDS011;38354;52.892;6.148;2023-02-21T19:33:05;88.03;;;29.00;;
52434;SDS011;38354;52.892;6.148;2023-02-21T19:35:33;102.40;;;29.40;;
52434;SDS011;38354;52.892;6.148;2023-02-21T19:38:03;82.68;;;28.92;;
52434;SDS011;38354;52.892;6.148;2023-02-21T19:40:31;87.57;;;29.20;;
52434;SDS011;38354;52.892;6.148;2023-02-21T19:42:57;93.15;;;29.63;;
52434;SDS011;38354;52.892;6.148;2023-02-21T19:45:23;90.00;;;28.33;;
52434;SDS011;38354;52.892;6.148;2023-02-21T19:47:49;91.88;;;28.70;;
52434;SDS011;38354;52.892;6.148;2023-02-21T19:50:15;82.53;;;27.85;;
52434;SDS011;38354;52.892;6.148;2023-02-21T19:52:41;96.63;;;30.63;;
52434;SDS011;38354;52.892;6.148;2023-02-21T19:55:07;84.60;;;28.58;;
52434;SDS011;38354;52.892;6.148;2023-02-21T19:57:34;90.40;;;31.02;;
52434;SDS011;38354;52.892;6.148;2023-02-21T19:59:59;86.32;;;30.83;;
52434;SDS011;38354;52.892;6.148;2023-02-21T20:02:25;99.07;;;33.00;;
52434;SDS011;38354;52.892;6.148;2023-02-21T20:04:50;84.78;;;30.40;;
52434;SDS011;38354;52.892;6.148;2023-02-21T20:07:16;92.18;;;31.00;;
52434;SDS011;38354;52.892;6.148;2023-02-21T20:09:42;97.47;;;30.17;;
52434;SDS011;38354;52.892;6.148;2023-02-21T20:12:10;82.10;;;28.63;;
52434;SDS011;38354;52.892;6.148;2023-02-21T20:14:35;99.13;;;29.33;;
52434;SDS011;38354;52.892;6.148;2023-02-21T20:17:01;88.35;;;28.98;;
52434;SDS011;38354;52.892;6.148;2023-02-21T20:19:28;104.25;;;30.67;;
52434;SDS011;38354;52.892;6.148;2023-02-21T20:21:54;131.25;;;33.53;;
52434;SDS011;38354;52.892;6.148;2023-02-21T20:24:20;86.18;;;30.35;;
52434;SDS011;38354;52.892;6.148;2023-02-21T20:26:47;106.32;;;30.90;;
52434;SDS011;38354;52.892;6.148;2023-02-21T20:29:17;114.45;;;34.28;;
52434;SDS011;38354;52.892;6.148;2023-02-21T20:31:43;115.95;;;33.00;;
52434;SDS011;38354;52.892;6.148;2023-02-21T20:34:09;112.22;;;33.78;;
52434;SDS011;38354;52.892;6.148;2023-02-21T20:36:36;104.00;;;32.17;;
52434;SDS011;38354;52.892;6.148;2023-02-21T20:39:06;122.45;;;34.47;;
52434;SDS011;38354;52.892;6.148;2023-02-21T20:41:42;108.82;;;33.45;;
52434;SDS011;38354;52.892;6.148;2023-02-21T20:44:09;115.25;;;34.25;;
52434;SDS011;38354;52.892;6.148;2023-02-21T20:46:36;126.75;;;34.95;;
52434;SDS011;38354;52.892;6.148;2023-02-21T20:49:02;120.93;;;34.78;;
52434;SDS011;38354;52.892;6.148;2023-02-21T20:51:31;123.72;;;35.75;;
52434;SDS011;38354;52.892;6.148;2023-02-21T20:53:59;98.43;;;30.92;;
52434;SDS011;38354;52.892;6.148;2023-02-21T20:56:32;98.93;;;31.65;;
52434;SDS011;38354;52.892;6.148;2023-02-21T20:58:59;99.03;;;30.67;;
52434;SDS011;38354;52.892;6.148;2023-02-21T21:01:25;104.18;;;30.58;;
52434;SDS011;38354;52.892;6.148;2023-02-21T21:03:51;108.30;;;30.42;;
52434;SDS011;38354;52.892;6.148;2023-02-21T21:06:17;111.80;;;32.40;;
52434;SDS011;38354;52.892;6.148;2023-02-21T21:08:43;102.88;;;31.33;;
52434;SDS011;38354;52.892;6.148;2023-02-21T21:11:08;107.10;;;30.95;;
52434;SDS011;38354;52.892;6.148;2023-02-21T21:13:34;108.03;;;30.08;;
52434;SDS011;38354;52.892;6.148;2023-02-21T21:16:01;114.63;;;31.83;;
52434;SDS011;38354;52.892;6.148;2023-02-21T21:18:29;113.22;;;31.85;;
52434;SDS011;38354;52.892;6.148;2023-02-21T21:20:55;113.65;;;31.00;;
52434;SDS011;38354;52.892;6.148;2023-02-21T21:23:20;110.80;;;31.48;;
52434;SDS011;38354;52.892;6.148;2023-02-21T21:25:46;118.75;;;32.22;;